KMOB/MOB METAR and TAF weather

Enter ICAO airport designator
Station Type Date Time Source
KMOB METAR 2019/12/13 16:56 UTC NOAA

KMOB 131656Z 01005KT 1/2SM FG OVC002 12/11 A2996 RMK AO2 SLP144 T01170111


Station Type Date Time Source
KMOB Decoded METAR 2019/12/13 16:56 UTC NOAA

MOBILE REGIONAL AIRPORT, AL, United States (KMOB) 30-41N 88-14W 67M
Dec 13, 2019 - 11:56 AM EST / 2019.12.13 1656 UTC
Wind: from the N (010 degrees) at 6 MPH (5 KT):0
Visibility: 1/2 mile(s):0
Sky conditions: overcast
Weather: fog
Temperature: 53.1 F (11.7 C)
Dew Point: 52.0 F (11.1 C)
Relative Humidity: 96%
Pressure (altimeter): 29.96 in. Hg (1014 hPa)
ob: KMOB 131656Z 01005KT 1/2SM FG OVC002 12/11 A2996 RMK AO2 SLP144 T01170111
cycle: 17

Station Type Date Time Source
KMOB TAF 2019/12/13 15:15 UTC NOAA

TAF
AMD KMOB 131513Z 1315/1412 02005KT 1/4SM FG VCSH VV002
FM132100 33004KT P6SM -SHRA OVC007
FM140000 33004KT P6SM OVC008 PROB30 1400/1406 4SM -SHRA OVC004
FM140600 33003KT 3SM BR BKN005

Example: see airport list